sensor_id;sensor_type;location;lat;lon;timestamp;P1;durP1;ratioP1;P2;durP2;ratioP2
80185;SDS011;69904;52.122;5.422;2023-06-19T00:02:23;6.47;;;4.28;;
80185;SDS011;69904;52.122;5.422;2023-06-19T00:04:50;7.60;;;4.75;;
80185;SDS011;69904;52.122;5.422;2023-06-19T00:07:16;8.35;;;5.40;;
80185;SDS011;69904;52.122;5.422;2023-06-19T00:09:43;7.97;;;5.05;;
80185;SDS011;69904;52.122;5.422;2023-06-19T00:12:09;7.25;;;5.22;;
80185;SDS011;69904;52.122;5.422;2023-06-19T00:14:37;7.07;;;5.05;;
80185;SDS011;69904;52.122;5.422;2023-06-19T00:17:04;8.13;;;5.38;;
80185;SDS011;69904;52.122;5.422;2023-06-19T00:19:32;8.85;;;5.22;;
80185;SDS011;69904;52.122;5.422;2023-06-19T00:22:03;8.50;;;5.43;;
80185;SDS011;69904;52.122;5.422;2023-06-19T00:24:30;10.10;;;5.78;;
80185;SDS011;69904;52.122;5.422;2023-06-19T00:26:56;7.45;;;5.93;;
80185;SDS011;69904;52.122;5.422;2023-06-19T00:29:28;8.18;;;5.32;;
80185;SDS011;69904;52.122;5.422;2023-06-19T00:31:58;8.10;;;6.00;;
80185;SDS011;69904;52.122;5.422;2023-06-19T00:34:25;8.65;;;5.35;;
80185;SDS011;69904;52.122;5.422;2023-06-19T00:36:52;9.10;;;6.28;;
80185;SDS011;69904;52.122;5.422;2023-06-19T00:39:25;7.88;;;5.68;;
80185;SDS011;69904;52.122;5.422;2023-06-19T00:41:52;11.15;;;5.47;;
80185;SDS011;69904;52.122;5.422;2023-06-19T00:44:19;10.13;;;5.13;;
80185;SDS011;69904;52.122;5.422;2023-06-19T00:49:13;9.85;;;5.40;;
80185;SDS011;69904;52.122;5.422;2023-06-19T00:51:40;7.20;;;4.80;;
80185;SDS011;69904;52.122;5.422;2023-06-19T00:54:07;6.35;;;4.82;;
80185;SDS011;69904;52.122;5.422;2023-06-19T00:56:34;4.90;;;4.38;;
80185;SDS011;69904;52.122;5.422;2023-06-19T00:59:05;7.50;;;4.93;;
80185;SDS011;69904;52.122;5.422;2023-06-19T01:01:33;7.20;;;4.28;;
80185;SDS011;69904;52.122;5.422;2023-06-19T01:04:00;5.00;;;3.75;;
80185;SDS011;69904;52.122;5.422;2023-06-19T01:06:27;6.68;;;3.25;;
80185;SDS011;69904;52.122;5.422;2023-06-19T01:09:05;6.15;;;3.55;;
80185;SDS011;69904;52.122;5.422;2023-06-19T01:11:43;7.30;;;3.58;;
80185;SDS011;69904;52.122;5.422;2023-06-19T01:14:15;5.50;;;2.95;;
80185;SDS011;69904;52.122;5.422;2023-06-19T01:16:45;6.68;;;2.88;;
80185;SDS011;69904;52.122;5.422;2023-06-19T01:19:15;4.80;;;2.70;;
80185;SDS011;69904;52.122;5.422;2023-06-19T01:21:46;5.28;;;2.88;;
80185;SDS011;69904;52.122;5.422;2023-06-19T01:24:13;3.30;;;2.00;;
80185;SDS011;69904;52.122;5.422;2023-06-19T01:26:40;3.78;;;2.20;;
80185;SDS011;69904;52.122;5.422;2023-06-19T01:29:08;4.47;;;2.28;;
80185;SDS011;69904;52.122;5.422;2023-06-19T01:34:29;4.28;;;2.05;;
80185;SDS011;69904;52.122;5.422;2023-06-19T01:36:56;5.10;;;2.08;;
80185;SDS011;69904;52.122;5.422;2023-06-19T01:39:23;5.85;;;1.88;;
80185;SDS011;69904;52.122;5.422;2023-06-19T01:41:51;4.95;;;1.50;;
80185;SDS011;69904;52.122;5.422;2023-06-19T01:44:18;2.35;;;1.35;;
80185;SDS011;69904;52.122;5.422;2023-06-19T01:46:48;3.13;;;0.90;;
80185;SDS011;69904;52.122;5.422;2023-06-19T01:49:16;3.35;;;1.10;;
80185;SDS011;69904;52.122;5.422;2023-06-19T01:51:43;1.83;;;0.88;;
80185;SDS011;69904;52.122;5.422;2023-06-19T01:56:37;3.65;;;1.02;;
80185;SDS011;69904;52.122;5.422;2023-06-19T01:59:03;3.28;;;1.38;;
80185;SDS011;69904;52.122;5.422;2023-06-19T02:03:56;3.80;;;1.60;;
80185;SDS011;69904;52.122;5.422;2023-06-19T02:06:23;2.35;;;1.20;;
80185;SDS011;69904;52.122;5.422;2023-06-19T02:08:49;2.20;;;1.20;;
80185;SDS011;69904;52.122;5.422;2023-06-19T02:13:42;4.10;;;1.40;;
80185;SDS011;69904;52.122;5.422;2023-06-19T02:16:09;3.03;;;1.45;;
80185;SDS011;69904;52.122;5.422;2023-06-19T02:18:35;1.90;;;0.85;;
80185;SDS011;69904;52.122;5.422;2023-06-19T02:21:02;3.53;;;1.30;;
80185;SDS011;69904;52.122;5.422;2023-06-19T02:25:54;2.67;;;1.65;;
80185;SDS011;69904;52.122;5.422;2023-06-19T02:28:21;2.78;;;1.52;;
80185;SDS011;69904;52.122;5.422;2023-06-19T02:30:47;3.17;;;2.05;;
80185;SDS011;69904;52.122;5.422;2023-06-19T02:35:40;2.75;;;1.50;;
80185;SDS011;69904;52.122;5.422;2023-06-19T02:38:07;2.95;;;1.15;;
80185;SDS011;69904;52.122;5.422;2023-06-19T02:43:00;1.92;;;1.23;;
80185;SDS011;69904;52.122;5.422;2023-06-19T02:45:27;4.10;;;1.48;;
80185;SDS011;69904;52.122;5.422;2023-06-19T02:50:19;3.85;;;2.15;;
80185;SDS011;69904;52.122;5.422;2023-06-19T02:52:46;6.43;;;1.85;;
80185;SDS011;69904;52.122;5.422;2023-06-19T02:55:13;4.20;;;1.70;;
80185;SDS011;69904;52.122;5.422;2023-06-19T03:00:06;2.83;;;1.55;;
80185;SDS011;69904;52.122;5.422;2023-06-19T03:02:35;4.07;;;2.10;;
80185;SDS011;69904;52.122;5.422;2023-06-19T03:05:02;2.05;;;1.40;;
80185;SDS011;69904;52.122;5.422;2023-06-19T03:07:29;3.38;;;2.10;;
80185;SDS011;69904;52.122;5.422;2023-06-19T03:09:55;4.65;;;2.20;;
80185;SDS011;69904;52.122;5.422;2023-06-19T03:12:22;4.45;;;2.20;;
80185;SDS011;69904;52.122;5.422;2023-06-19T03:17:14;3.03;;;2.03;;
80185;SDS011;69904;52.122;5.422;2023-06-19T03:19:41;3.25;;;2.20;;
80185;SDS011;69904;52.122;5.422;2023-06-19T03:22:07;4.43;;;2.42;;
80185;SDS011;69904;52.122;5.422;2023-06-19T03:24:34;3.40;;;2.35;;
80185;SDS011;69904;52.122;5.422;2023-06-19T03:27:00;4.50;;;2.65;;
80185;SDS011;69904;52.122;5.422;2023-06-19T03:31:54;5.57;;;2.40;;
80185;SDS011;69904;52.122;5.422;2023-06-19T03:34:20;3.10;;;2.30;;
80185;SDS011;69904;52.122;5.422;2023-06-19T03:36:46;4.30;;;2.05;;
80185;SDS011;69904;52.122;5.422;2023-06-19T03:39:13;3.90;;;2.22;;
80185;SDS011;69904;52.122;5.422;2023-06-19T03:41:40;3.70;;;2.15;;
80185;SDS011;69904;52.122;5.422;2023-06-19T03:46:33;4.28;;;2.28;;
80185;SDS011;69904;52.122;5.422;2023-06-19T03:51:26;4.30;;;2.60;;
80185;SDS011;69904;52.122;5.422;2023-06-19T03:53:55;3.10;;;2.42;;
80185;SDS011;69904;52.122;5.422;2023-06-19T03:56:21;5.10;;;3.40;;
80185;SDS011;69904;52.122;5.422;2023-06-19T03:58:48;4.68;;;2.78;;
80185;SDS011;69904;52.122;5.422;2023-06-19T04:01:14;5.47;;;3.05;;
80185;SDS011;69904;52.122;5.422;2023-06-19T04:03:41;7.28;;;4.03;;
80185;SDS011;69904;52.122;5.422;2023-06-19T04:08:34;8.02;;;4.35;;
80185;SDS011;69904;52.122;5.422;2023-06-19T04:13:26;6.13;;;3.70;;
80185;SDS011;69904;52.122;5.422;2023-06-19T04:15:53;8.80;;;4.47;;
80185;SDS011;69904;52.122;5.422;2023-06-19T04:20:46;10.38;;;6.07;;
80185;SDS011;69904;52.122;5.422;2023-06-19T04:23:12;9.52;;;6.13;;
80185;SDS011;69904;52.122;5.422;2023-06-19T04:25:39;9.00;;;5.68;;
80185;SDS011;69904;52.122;5.422;2023-06-19T04:28:05;11.90;;;6.70;;
80185;SDS011;69904;52.122;5.422;2023-06-19T04:32:58;11.93;;;6.82;;
80185;SDS011;69904;52.122;5.422;2023-06-19T04:35:25;9.07;;;5.90;;
80185;SDS011;69904;52.122;5.422;2023-06-19T04:37:52;13.80;;;8.02;;
80185;SDS011;69904;52.122;5.422;2023-06-19T04:40:19;14.85;;;7.53;;
80185;SDS011;69904;52.122;5.422;2023-06-19T04:42:46;11.77;;;6.28;;
80185;SDS011;69904;52.122;5.422;2023-06-19T04:45:12;9.48;;;6.07;;
80185;SDS011;69904;52.122;5.422;2023-06-19T04:47:39;8.45;;;5.60;;
80185;SDS011;69904;52.122;5.422;2023-06-19T04:50:18;11.75;;;6.22;;
80185;SDS011;69904;52.122;5.422;2023-06-19T04:52:45;10.25;;;5.57;;
80185;SDS011;69904;52.122;5.422;2023-06-19T04:55:13;7.63;;;4.90;;
80185;SDS011;69904;52.122;5.422;2023-06-19T04:57:39;7.40;;;4.75;;
80185;SDS011;69904;52.122;5.422;2023-06-19T05:00:06;7.85;;;3.85;;
80185;SDS011;69904;52.122;5.422;2023-06-19T05:02:33;4.60;;;3.00;;
80185;SDS011;69904;52.122;5.422;2023-06-19T05:05:00;3.55;;;2.33;;
80185;SDS011;69904;52.122;5.422;2023-06-19T05:07:30;2.85;;;1.70;;
80185;SDS011;69904;52.122;5.422;2023-06-19T05:09:57;4.57;;;2.30;;
80185;SDS011;69904;52.122;5.422;2023-06-19T05:12:24;3.78;;;2.67;;
80185;SDS011;69904;52.122;5.422;2023-06-19T05:14:51;3.83;;;2.10;;
80185;SDS011;69904;52.122;5.422;2023-06-19T05:17:17;4.82;;;2.38;;
80185;SDS011;69904;52.122;5.422;2023-06-19T05:19:44;5.05;;;2.65;;
80185;SDS011;69904;52.122;5.422;2023-06-19T05:22:10;7.00;;;3.35;;
80185;SDS011;69904;52.122;5.422;2023-06-19T05:24:37;5.32;;;3.20;;
80185;SDS011;69904;52.122;5.422;2023-06-19T05:29:30;6.97;;;3.53;;
80185;SDS011;69904;52.122;5.422;2023-06-19T05:31:57;4.47;;;2.80;;
80185;SDS011;69904;52.122;5.422;2023-06-19T05:34:23;4.38;;;2.60;;
80185;SDS011;69904;52.122;5.422;2023-06-19T05:36:49;8.82;;;3.42;;
80185;SDS011;69904;52.122;5.422;2023-06-19T05:39:16;6.70;;;3.50;;
80185;SDS011;69904;52.122;5.422;2023-06-19T05:41:45;4.47;;;2.50;;
80185;SDS011;69904;52.122;5.422;2023-06-19T05:44:14;4.53;;;2.78;;
80185;SDS011;69904;52.122;5.422;2023-06-19T05:46:42;4.57;;;2.58;;
80185;SDS011;69904;52.122;5.422;2023-06-19T05:49:09;5.00;;;2.88;;
80185;SDS011;69904;52.122;5.422;2023-06-19T05:51:35;6.22;;;3.42;;
80185;SDS011;69904;52.122;5.422;2023-06-19T05:54:02;5.43;;;3.22;;
80185;SDS011;69904;52.122;5.422;2023-06-19T05:56:30;5.55;;;3.60;;
80185;SDS011;69904;52.122;5.422;2023-06-19T05:58:59;6.32;;;4.10;;
80185;SDS011;69904;52.122;5.422;2023-06-19T06:01:28;6.05;;;4.03;;
80185;SDS011;69904;52.122;5.422;2023-06-19T06:03:55;7.90;;;4.88;;
80185;SDS011;69904;52.122;5.422;2023-06-19T06:06:23;8.95;;;5.10;;
80185;SDS011;69904;52.122;5.422;2023-06-19T06:08:49;9.55;;;4.88;;
80185;SDS011;69904;52.122;5.422;2023-06-19T06:11:17;9.27;;;5.38;;
80185;SDS011;69904;52.122;5.422;2023-06-19T06:13:44;8.23;;;4.28;;
80185;SDS011;69904;52.122;5.422;2023-06-19T06:16:10;9.15;;;4.78;;
80185;SDS011;69904;52.122;5.422;2023-06-19T06:21:03;8.02;;;4.53;;
80185;SDS011;69904;52.122;5.422;2023-06-19T06:23:30;9.43;;;5.22;;
80185;SDS011;69904;52.122;5.422;2023-06-19T06:25:57;7.13;;;4.20;;
80185;SDS011;69904;52.122;5.422;2023-06-19T06:28:28;8.52;;;5.25;;
80185;SDS011;69904;52.122;5.422;2023-06-19T06:33:21;5.55;;;2.95;;
80185;SDS011;69904;52.122;5.422;2023-06-19T06:35:47;8.35;;;3.05;;
80185;SDS011;69904;52.122;5.422;2023-06-19T06:38:14;4.82;;;3.03;;
80185;SDS011;69904;52.122;5.422;2023-06-19T06:40:40;8.50;;;3.30;;
80185;SDS011;69904;52.122;5.422;2023-06-19T06:43:08;7.80;;;3.20;;
80185;SDS011;69904;52.122;5.422;2023-06-19T06:45:35;7.55;;;4.68;;
80185;SDS011;69904;52.122;5.422;2023-06-19T06:48:06;6.15;;;3.53;;
80185;SDS011;69904;52.122;5.422;2023-06-19T06:50:33;4.85;;;3.22;;
80185;SDS011;69904;52.122;5.422;2023-06-19T06:53:00;6.75;;;3.63;;
80185;SDS011;69904;52.122;5.422;2023-06-19T06:57:53;8.32;;;5.80;;
80185;SDS011;69904;52.122;5.422;2023-06-19T07:00:19;9.88;;;4.82;;
80185;SDS011;69904;52.122;5.422;2023-06-19T07:02:46;11.43;;;5.47;;
80185;SDS011;69904;52.122;5.422;2023-06-19T07:05:14;8.40;;;4.95;;
80185;SDS011;69904;52.122;5.422;2023-06-19T07:07:41;9.70;;;6.00;;
80185;SDS011;69904;52.122;5.422;2023-06-19T07:10:07;10.23;;;5.95;;
80185;SDS011;69904;52.122;5.422;2023-06-19T07:12:35;9.93;;;6.15;;
80185;SDS011;69904;52.122;5.422;2023-06-19T07:15:02;11.02;;;6.28;;
80185;SDS011;69904;52.122;5.422;2023-06-19T07:19:55;8.20;;;5.35;;
80185;SDS011;69904;52.122;5.422;2023-06-19T07:24:48;11.98;;;6.25;;
80185;SDS011;69904;52.122;5.422;2023-06-19T07:27:14;9.02;;;5.68;;
80185;SDS011;69904;52.122;5.422;2023-06-19T07:29:41;11.38;;;6.45;;
80185;SDS011;69904;52.122;5.422;2023-06-19T07:32:07;11.27;;;7.50;;
80185;SDS011;69904;52.122;5.422;2023-06-19T07:34:34;14.60;;;7.82;;
80185;SDS011;69904;52.122;5.422;2023-06-19T07:37:00;15.07;;;7.68;;
80185;SDS011;69904;52.122;5.422;2023-06-19T07:41:53;11.02;;;6.72;;
80185;SDS011;69904;52.122;5.422;2023-06-19T07:44:19;9.73;;;6.35;;
80185;SDS011;69904;52.122;5.422;2023-06-19T07:46:47;9.63;;;6.82;;
80185;SDS011;69904;52.122;5.422;2023-06-19T07:51:40;10.60;;;7.00;;
80185;SDS011;69904;52.122;5.422;2023-06-19T07:54:06;12.38;;;8.05;;
80185;SDS011;69904;52.122;5.422;2023-06-19T07:56:32;10.38;;;8.07;;
80185;SDS011;69904;52.122;5.422;2023-06-19T07:58:59;13.43;;;8.27;;
80185;SDS011;69904;52.122;5.422;2023-06-19T08:01:26;14.90;;;8.45;;
80185;SDS011;69904;52.122;5.422;2023-06-19T08:03:53;13.45;;;8.55;;
80185;SDS011;69904;52.122;5.422;2023-06-19T08:06:19;12.77;;;8.88;;
80185;SDS011;69904;52.122;5.422;2023-06-19T08:08:46;14.40;;;9.38;;
80185;SDS011;69904;52.122;5.422;2023-06-19T08:11:13;18.05;;;9.25;;
80185;SDS011;69904;52.122;5.422;2023-06-19T08:13:39;13.27;;;8.80;;
80185;SDS011;69904;52.122;5.422;2023-06-19T08:16:06;14.07;;;8.77;;
80185;SDS011;69904;52.122;5.422;2023-06-19T08:18:33;13.32;;;8.27;;
80185;SDS011;69904;52.122;5.422;2023-06-19T08:20:59;13.82;;;9.25;;
80185;SDS011;69904;52.122;5.422;2023-06-19T08:23:26;12.68;;;8.50;;
80185;SDS011;69904;52.122;5.422;2023-06-19T08:25:52;14.57;;;8.80;;
80185;SDS011;69904;52.122;5.422;2023-06-19T08:28:19;15.52;;;8.48;;
80185;SDS011;69904;52.122;5.422;2023-06-19T08:30:45;13.05;;;8.40;;
80185;SDS011;69904;52.122;5.422;2023-06-19T08:33:15;16.67;;;9.32;;
80185;SDS011;69904;52.122;5.422;2023-06-19T08:35:41;16.55;;;9.27;;
80185;SDS011;69904;52.122;5.422;2023-06-19T08:40:34;17.15;;;8.40;;
80185;SDS011;69904;52.122;5.422;2023-06-19T08:43:00;15.43;;;9.13;;
80185;SDS011;69904;52.122;5.422;2023-06-19T08:48:00;16.13;;;9.85;;
80185;SDS011;69904;52.122;5.422;2023-06-19T08:50:33;16.95;;;9.05;;
80185;SDS011;69904;52.122;5.422;2023-06-19T08:52:59;15.18;;;8.82;;
80185;SDS011;69904;52.122;5.422;2023-06-19T08:55:26;14.32;;;8.65;;
80185;SDS011;69904;52.122;5.422;2023-06-19T08:57:52;14.93;;;9.25;;
80185;SDS011;69904;52.122;5.422;2023-06-19T09:02:50;17.30;;;9.75;;
80185;SDS011;69904;52.122;5.422;2023-06-19T09:05:36;16.42;;;9.30;;
80185;SDS011;69904;52.122;5.422;2023-06-19T09:08:12;16.48;;;9.60;;
80185;SDS011;69904;52.122;5.422;2023-06-19T09:10:39;15.98;;;9.23;;
80185;SDS011;69904;52.122;5.422;2023-06-19T09:15:37;15.43;;;10.23;;
80185;SDS011;69904;52.122;5.422;2023-06-19T09:18:04;15.57;;;9.43;;
80185;SDS011;69904;52.122;5.422;2023-06-19T09:20:36;16.73;;;10.20;;
80185;SDS011;69904;52.122;5.422;2023-06-19T09:23:06;19.08;;;10.70;;
80185;SDS011;69904;52.122;5.422;2023-06-19T09:28:16;18.67;;;10.88;;
80185;SDS011;69904;52.122;5.422;2023-06-19T09:30:57;16.85;;;10.32;;
80185;SDS011;69904;52.122;5.422;2023-06-19T09:33:26;19.80;;;10.85;;
80185;SDS011;69904;52.122;5.422;2023-06-19T09:35:55;21.90;;;11.88;;
80185;SDS011;69904;52.122;5.422;2023-06-19T09:38:30;16.60;;;11.00;;
80185;SDS011;69904;52.122;5.422;2023-06-19T09:40:58;16.55;;;10.93;;
80185;SDS011;69904;52.122;5.422;2023-06-19T09:43:37;15.40;;;9.68;;
80185;SDS011;69904;52.122;5.422;2023-06-19T09:46:06;21.13;;;11.07;;
80185;SDS011;69904;52.122;5.422;2023-06-19T09:48:34;15.82;;;10.13;;
80185;SDS011;69904;52.122;5.422;2023-06-19T09:53:37;14.82;;;9.95;;
80185;SDS011;69904;52.122;5.422;2023-06-19T09:56:03;16.85;;;10.27;;
80185;SDS011;69904;52.122;5.422;2023-06-19T09:58:30;15.65;;;9.73;;
80185;SDS011;69904;52.122;5.422;2023-06-19T10:00:57;13.93;;;9.38;;
80185;SDS011;69904;52.122;5.422;2023-06-19T10:03:31;15.75;;;9.30;;
80185;SDS011;69904;52.122;5.422;2023-06-19T10:05:59;17.08;;;9.07;;
80185;SDS011;69904;52.122;5.422;2023-06-19T10:08:27;16.52;;;9.15;;
80185;SDS011;69904;52.122;5.422;2023-06-19T10:10:58;14.48;;;9.68;;
80185;SDS011;69904;52.122;5.422;2023-06-19T10:15:57;14.63;;;10.05;;
80185;SDS011;69904;52.122;5.422;2023-06-19T10:20:51;13.57;;;8.65;;
80185;SDS011;69904;52.122;5.422;2023-06-19T10:23:18;12.95;;;7.95;;
80185;SDS011;69904;52.122;5.422;2023-06-19T10:25:48;15.15;;;8.30;;
80185;SDS011;69904;52.122;5.422;2023-06-19T10:28:31;14.60;;;8.38;;
80185;SDS011;69904;52.122;5.422;2023-06-19T10:33:35;13.30;;;7.63;;
80185;SDS011;69904;52.122;5.422;2023-06-19T10:36:16;12.88;;;8.50;;
80185;SDS011;69904;52.122;5.422;2023-06-19T10:38:44;11.82;;;7.30;;
80185;SDS011;69904;52.122;5.422;2023-06-19T10:41:16;12.35;;;8.27;;
80185;SDS011;69904;52.122;5.422;2023-06-19T10:44:05;15.07;;;8.75;;
80185;SDS011;69904;52.122;5.422;2023-06-19T10:46:36;13.40;;;7.72;;
80185;SDS011;69904;52.122;5.422;2023-06-19T10:49:03;12.93;;;7.95;;
80185;SDS011;69904;52.122;5.422;2023-06-19T10:51:34;14.65;;;9.10;;
80185;SDS011;69904;52.122;5.422;2023-06-19T10:54:01;16.13;;;10.05;;
80185;SDS011;69904;52.122;5.422;2023-06-19T10:56:28;16.35;;;9.02;;
80185;SDS011;69904;52.122;5.422;2023-06-19T10:59:01;14.25;;;8.88;;
80185;SDS011;69904;52.122;5.422;2023-06-19T11:01:36;15.15;;;8.80;;
80185;SDS011;69904;52.122;5.422;2023-06-19T11:04:04;13.48;;;9.45;;
80185;SDS011;69904;52.122;5.422;2023-06-19T11:06:32;15.35;;;9.05;;
80185;SDS011;69904;52.122;5.422;2023-06-19T11:09:00;13.05;;;8.60;;
80185;SDS011;69904;52.122;5.422;2023-06-19T11:11:45;11.55;;;7.70;;
80185;SDS011;69904;52.122;5.422;2023-06-19T11:14:13;13.30;;;9.07;;
80185;SDS011;69904;52.122;5.422;2023-06-19T11:16:42;14.82;;;8.63;;
80185;SDS011;69904;52.122;5.422;2023-06-19T11:19:16;14.75;;;8.55;;
80185;SDS011;69904;52.122;5.422;2023-06-19T11:21:48;13.27;;;7.63;;
80185;SDS011;69904;52.122;5.422;2023-06-19T11:24:16;12.80;;;7.95;;
80185;SDS011;69904;52.122;5.422;2023-06-19T11:26:45;16.88;;;9.35;;
80185;SDS011;69904;52.122;5.422;2023-06-19T11:29:17;13.90;;;9.65;;
80185;SDS011;69904;52.122;5.422;2023-06-19T11:31:45;14.18;;;8.73;;
80185;SDS011;69904;52.122;5.422;2023-06-19T11:34:13;13.90;;;8.18;;
80185;SDS011;69904;52.122;5.422;2023-06-19T11:36:41;13.07;;;8.40;;
80185;SDS011;69904;52.122;5.422;2023-06-19T11:39:11;13.30;;;8.25;;
80185;SDS011;69904;52.122;5.422;2023-06-19T11:41:39;11.95;;;7.72;;
80185;SDS011;69904;52.122;5.422;2023-06-19T11:44:07;13.55;;;8.55;;
80185;SDS011;69904;52.122;5.422;2023-06-19T11:46:37;13.60;;;8.90;;
80185;SDS011;69904;52.122;5.422;2023-06-19T11:49:07;12.55;;;8.95;;
80185;SDS011;69904;52.122;5.422;2023-06-19T11:51:35;12.80;;;8.85;;
80185;SDS011;69904;52.122;5.422;2023-06-19T11:54:02;9.70;;;6.72;;
80185;SDS011;69904;52.122;5.422;2023-06-19T11:56:30;10.82;;;7.38;;
80185;SDS011;69904;52.122;5.422;2023-06-19T11:58:56;11.55;;;7.10;;
80185;SDS011;69904;52.122;5.422;2023-06-19T12:01:23;10.85;;;6.80;;
80185;SDS011;69904;52.122;5.422;2023-06-19T12:03:49;10.63;;;6.95;;
80185;SDS011;69904;52.122;5.422;2023-06-19T12:06:16;9.70;;;6.97;;
80185;SDS011;69904;52.122;5.422;2023-06-19T12:08:44;11.68;;;7.75;;
80185;SDS011;69904;52.122;5.422;2023-06-19T12:11:10;10.73;;;7.38;;
80185;SDS011;69904;52.122;5.422;2023-06-19T12:13:42;12.23;;;7.93;;
80185;SDS011;69904;52.122;5.422;2023-06-19T12:16:12;11.77;;;7.47;;
80185;SDS011;69904;52.122;5.422;2023-06-19T12:18:39;11.63;;;6.85;;
80185;SDS011;69904;52.122;5.422;2023-06-19T12:21:06;10.65;;;7.60;;
80185;SDS011;69904;52.122;5.422;2023-06-19T12:23:46;12.07;;;7.32;;
80185;SDS011;69904;52.122;5.422;2023-06-19T12:26:14;10.88;;;7.45;;
80185;SDS011;69904;52.122;5.422;2023-06-19T12:28:40;9.38;;;6.55;;
80185;SDS011;69904;52.122;5.422;2023-06-19T12:31:07;10.95;;;7.60;;
80185;SDS011;69904;52.122;5.422;2023-06-19T12:33:34;9.73;;;6.45;;
80185;SDS011;69904;52.122;5.422;2023-06-19T12:36:01;8.38;;;6.80;;
80185;SDS011;69904;52.122;5.422;2023-06-19T12:38:28;10.88;;;7.57;;
80185;SDS011;69904;52.122;5.422;2023-06-19T12:40:54;11.18;;;6.88;;
80185;SDS011;69904;52.122;5.422;2023-06-19T12:43:21;9.23;;;6.32;;
80185;SDS011;69904;52.122;5.422;2023-06-19T12:45:47;8.85;;;6.53;;
80185;SDS011;69904;52.122;5.422;2023-06-19T12:48:14;10.05;;;6.40;;
80185;SDS011;69904;52.122;5.422;2023-06-19T12:50:40;10.65;;;5.90;;
80185;SDS011;69904;52.122;5.422;2023-06-19T12:53:07;7.25;;;5.00;;
80185;SDS011;69904;52.122;5.422;2023-06-19T12:55:33;9.75;;;6.13;;
80185;SDS011;69904;52.122;5.422;2023-06-19T12:58:08;9.50;;;6.03;;
80185;SDS011;69904;52.122;5.422;2023-06-19T13:00:39;11.45;;;7.38;;
80185;SDS011;69904;52.122;5.422;2023-06-19T13:03:05;10.30;;;5.88;;
80185;SDS011;69904;52.122;5.422;2023-06-19T13:05:32;9.10;;;6.30;;
80185;SDS011;69904;52.122;5.422;2023-06-19T13:07:58;9.55;;;6.50;;
80185;SDS011;69904;52.122;5.422;2023-06-19T13:10:25;9.07;;;6.18;;
80185;SDS011;69904;52.122;5.422;2023-06-19T13:12:51;10.63;;;6.60;;
80185;SDS011;69904;52.122;5.422;2023-06-19T13:15:18;8.10;;;5.85;;
80185;SDS011;69904;52.122;5.422;2023-06-19T13:17:44;9.85;;;5.47;;
80185;SDS011;69904;52.122;5.422;2023-06-19T13:20:11;9.43;;;6.65;;
80185;SDS011;69904;52.122;5.422;2023-06-19T13:22:38;9.00;;;6.15;;
80185;SDS011;69904;52.122;5.422;2023-06-19T13:25:04;9.18;;;5.57;;
80185;SDS011;69904;52.122;5.422;2023-06-19T13:27:31;10.85;;;7.07;;
80185;SDS011;69904;52.122;5.422;2023-06-19T13:29:59;8.93;;;6.00;;
80185;SDS011;69904;52.122;5.422;2023-06-19T13:32:26;7.35;;;5.22;;
80185;SDS011;69904;52.122;5.422;2023-06-19T13:34:53;7.88;;;5.80;;
80185;SDS011;69904;52.122;5.422;2023-06-19T13:37:20;9.32;;;5.55;;
80185;SDS011;69904;52.122;5.422;2023-06-19T13:39:46;7.05;;;5.15;;
80185;SDS011;69904;52.122;5.422;2023-06-19T13:42:12;8.90;;;5.60;;
80185;SDS011;69904;52.122;5.422;2023-06-19T13:44:39;9.73;;;6.25;;
80185;SDS011;69904;52.122;5.422;2023-06-19T13:47:05;7.75;;;5.80;;
80185;SDS011;69904;52.122;5.422;2023-06-19T13:49:32;7.75;;;5.45;;
80185;SDS011;69904;52.122;5.422;2023-06-19T13:51:59;6.70;;;4.85;;
80185;SDS011;69904;52.122;5.422;2023-06-19T13:54:25;7.47;;;4.63;;
80185;SDS011;69904;52.122;5.422;2023-06-19T13:56:52;9.77;;;5.57;;
80185;SDS011;69904;52.122;5.422;2023-06-19T13:59:19;9.70;;;4.88;;
80185;SDS011;69904;52.122;5.422;2023-06-19T14:01:45;7.15;;;5.63;;
80185;SDS011;69904;52.122;5.422;2023-06-19T14:04:12;7.07;;;4.90;;
80185;SDS011;69904;52.122;5.422;2023-06-19T14:06:38;7.10;;;4.85;;
80185;SDS011;69904;52.122;5.422;2023-06-19T14:09:05;8.38;;;5.40;;
80185;SDS011;69904;52.122;5.422;2023-06-19T14:11:31;6.80;;;4.68;;
80185;SDS011;69904;52.122;5.422;2023-06-19T14:13:58;7.28;;;4.72;;
80185;SDS011;69904;52.122;5.422;2023-06-19T14:16:25;9.45;;;5.38;;
80185;SDS011;69904;52.122;5.422;2023-06-19T14:18:51;8.60;;;4.50;;
80185;SDS011;69904;52.122;5.422;2023-06-19T14:21:18;6.30;;;4.68;;
80185;SDS011;69904;52.122;5.422;2023-06-19T14:23:45;8.35;;;4.53;;
80185;SDS011;69904;52.122;5.422;2023-06-19T14:26:11;6.70;;;4.68;;
80185;SDS011;69904;52.122;5.422;2023-06-19T14:28:37;9.43;;;5.40;;
80185;SDS011;69904;52.122;5.422;2023-06-19T14:31:05;7.65;;;5.38;;
80185;SDS011;69904;52.122;5.422;2023-06-19T14:33:31;7.50;;;4.72;;
80185;SDS011;69904;52.122;5.422;2023-06-19T14:35:59;7.30;;;4.90;;
80185;SDS011;69904;52.122;5.422;2023-06-19T14:38:25;5.82;;;4.10;;
80185;SDS011;69904;52.122;5.422;2023-06-19T14:40:57;8.50;;;5.05;;
80185;SDS011;69904;52.122;5.422;2023-06-19T14:43:25;5.70;;;3.90;;
80185;SDS011;69904;52.122;5.422;2023-06-19T14:45:52;5.55;;;3.85;;
80185;SDS011;69904;52.122;5.422;2023-06-19T14:48:19;6.57;;;4.25;;
80185;SDS011;69904;52.122;5.422;2023-06-19T14:50:45;8.63;;;4.55;;
80185;SDS011;69904;52.122;5.422;2023-06-19T14:53:12;6.22;;;3.78;;
80185;SDS011;69904;52.122;5.422;2023-06-19T14:55:38;6.18;;;4.00;;
80185;SDS011;69904;52.122;5.422;2023-06-19T14:58:09;6.20;;;4.43;;
80185;SDS011;69904;52.122;5.422;2023-06-19T15:00:35;5.53;;;4.03;;
80185;SDS011;69904;52.122;5.422;2023-06-19T15:03:04;7.43;;;4.05;;
80185;SDS011;69904;52.122;5.422;2023-06-19T15:05:32;5.60;;;4.15;;
80185;SDS011;69904;52.122;5.422;2023-06-19T15:07:59;6.85;;;4.63;;
80185;SDS011;69904;52.122;5.422;2023-06-19T15:10:27;5.53;;;3.70;;
80185;SDS011;69904;52.122;5.422;2023-06-19T15:12:53;7.80;;;4.25;;
80185;SDS011;69904;52.122;5.422;2023-06-19T15:15:20;6.97;;;4.35;;
80185;SDS011;69904;52.122;5.422;2023-06-19T15:17:46;7.43;;;4.32;;
80185;SDS011;69904;52.122;5.422;2023-06-19T15:20:13;5.55;;;4.00;;
80185;SDS011;69904;52.122;5.422;2023-06-19T15:22:42;6.50;;;4.10;;
80185;SDS011;69904;52.122;5.422;2023-06-19T15:25:09;5.47;;;3.92;;
80185;SDS011;69904;52.122;5.422;2023-06-19T15:27:35;7.38;;;4.30;;
80185;SDS011;69904;52.122;5.422;2023-06-19T15:30:02;6.10;;;3.38;;
80185;SDS011;69904;52.122;5.422;2023-06-19T15:32:29;4.45;;;3.45;;
80185;SDS011;69904;52.122;5.422;2023-06-19T15:34:55;5.50;;;3.70;;
80185;SDS011;69904;52.122;5.422;2023-06-19T15:37:22;6.18;;;3.92;;
80185;SDS011;69904;52.122;5.422;2023-06-19T15:39:49;7.40;;;4.28;;
80185;SDS011;69904;52.122;5.422;2023-06-19T15:42:17;6.68;;;4.40;;
80185;SDS011;69904;52.122;5.422;2023-06-19T15:44:44;7.43;;;3.58;;
80185;SDS011;69904;52.122;5.422;2023-06-19T15:47:10;6.07;;;3.15;;
80185;SDS011;69904;52.122;5.422;2023-06-19T15:49:37;5.80;;;3.63;;
80185;SDS011;69904;52.122;5.422;2023-06-19T15:52:04;7.50;;;4.18;;
80185;SDS011;69904;52.122;5.422;2023-06-19T15:54:31;6.47;;;4.05;;
80185;SDS011;69904;52.122;5.422;2023-06-19T15:56:57;9.13;;;3.95;;
80185;SDS011;69904;52.122;5.422;2023-06-19T15:59:24;5.93;;;3.67;;
80185;SDS011;69904;52.122;5.422;2023-06-19T16:01:51;7.40;;;4.03;;
80185;SDS011;69904;52.122;5.422;2023-06-19T16:04:17;9.35;;;4.05;;
80185;SDS011;69904;52.122;5.422;2023-06-19T16:06:44;6.47;;;4.10;;
80185;SDS011;69904;52.122;5.422;2023-06-19T16:09:10;5.68;;;3.30;;
80185;SDS011;69904;52.122;5.422;2023-06-19T16:11:37;5.93;;;3.60;;
80185;SDS011;69904;52.122;5.422;2023-06-19T16:14:03;6.65;;;3.63;;